sensor_id;sensor_type;location;lat;lon;timestamp;P1;durP1;ratioP1;P2;durP2;ratioP2
37791;SDS011;29527;55.766;37.570;2023-05-14T00:01:19;4.22;;;2.35;;
37791;SDS011;29527;55.766;37.570;2023-05-14T00:03:44;3.90;;;2.63;;
37791;SDS011;29527;55.766;37.570;2023-05-14T00:06:10;5.45;;;2.55;;
37791;SDS011;29527;55.766;37.570;2023-05-14T00:08:36;5.25;;;2.78;;
37791;SDS011;29527;55.766;37.570;2023-05-14T00:11:01;7.25;;;2.65;;
37791;SDS011;29527;55.766;37.570;2023-05-14T00:13:27;5.88;;;2.50;;
37791;SDS011;29527;55.766;37.570;2023-05-14T00:15:52;5.93;;;2.70;;
37791;SDS011;29527;55.766;37.570;2023-05-14T00:18:18;5.60;;;2.58;;
37791;SDS011;29527;55.766;37.570;2023-05-14T00:20:43;4.50;;;3.00;;
37791;SDS011;29527;55.766;37.570;2023-05-14T00:23:09;5.63;;;2.72;;
37791;SDS011;29527;55.766;37.570;2023-05-14T00:25:35;4.80;;;2.60;;
37791;SDS011;29527;55.766;37.570;2023-05-14T00:28:02;4.57;;;2.63;;
37791;SDS011;29527;55.766;37.570;2023-05-14T00:30:28;6.70;;;2.55;;
37791;SDS011;29527;55.766;37.570;2023-05-14T00:32:53;3.92;;;2.70;;
37791;SDS011;29527;55.766;37.570;2023-05-14T00:35:19;3.40;;;2.17;;
37791;SDS011;29527;55.766;37.570;2023-05-14T00:37:45;3.55;;;2.60;;
37791;SDS011;29527;55.766;37.570;2023-05-14T00:40:11;6.78;;;2.70;;
37791;SDS011;29527;55.766;37.570;2023-05-14T00:42:40;3.72;;;2.45;;
37791;SDS011;29527;55.766;37.570;2023-05-14T00:45:06;3.83;;;2.55;;
37791;SDS011;29527;55.766;37.570;2023-05-14T00:47:32;3.40;;;2.60;;
37791;SDS011;29527;55.766;37.570;2023-05-14T00:50:03;9.02;;;3.00;;
37791;SDS011;29527;55.766;37.570;2023-05-14T00:52:30;5.75;;;2.80;;
37791;SDS011;29527;55.766;37.570;2023-05-14T00:54:56;4.63;;;2.45;;
37791;SDS011;29527;55.766;37.570;2023-05-14T00:57:23;6.20;;;2.65;;
37791;SDS011;29527;55.766;37.570;2023-05-14T00:59:48;7.60;;;2.85;;
37791;SDS011;29527;55.766;37.570;2023-05-14T01:02:14;6.00;;;2.60;;
37791;SDS011;29527;55.766;37.570;2023-05-14T01:04:40;5.32;;;2.45;;
37791;SDS011;29527;55.766;37.570;2023-05-14T01:07:08;4.88;;;2.50;;
37791;SDS011;29527;55.766;37.570;2023-05-14T01:09:49;5.40;;;2.58;;
37791;SDS011;29527;55.766;37.570;2023-05-14T01:15:01;8.02;;;2.80;;
37791;SDS011;29527;55.766;37.570;2023-05-14T01:17:52;6.00;;;2.50;;
37791;SDS011;29527;55.766;37.570;2023-05-14T01:20:20;5.60;;;2.85;;
37791;SDS011;29527;55.766;37.570;2023-05-14T01:22:47;4.15;;;2.67;;
37791;SDS011;29527;55.766;37.570;2023-05-14T01:25:13;6.45;;;2.80;;
37791;SDS011;29527;55.766;37.570;2023-05-14T01:27:44;6.72;;;2.60;;
37791;SDS011;29527;55.766;37.570;2023-05-14T01:30:33;5.43;;;2.50;;
37791;SDS011;29527;55.766;37.570;2023-05-14T01:33:01;7.53;;;2.50;;
37791;SDS011;29527;55.766;37.570;2023-05-14T01:35:30;7.43;;;3.25;;
37791;SDS011;29527;55.766;37.570;2023-05-14T01:38:00;5.30;;;2.38;;
37791;SDS011;29527;55.766;37.570;2023-05-14T01:40:28;6.60;;;2.60;;
37791;SDS011;29527;55.766;37.570;2023-05-14T01:42:56;5.35;;;2.40;;
37791;SDS011;29527;55.766;37.570;2023-05-14T01:45:25;5.20;;;2.65;;
37791;SDS011;29527;55.766;37.570;2023-05-14T01:47:51;6.25;;;2.50;;
37791;SDS011;29527;55.766;37.570;2023-05-14T01:50:18;5.35;;;2.83;;
37791;SDS011;29527;55.766;37.570;2023-05-14T01:52:43;5.13;;;2.45;;
37791;SDS011;29527;55.766;37.570;2023-05-14T01:55:09;7.05;;;2.67;;
37791;SDS011;29527;55.766;37.570;2023-05-14T01:57:35;5.78;;;2.60;;
37791;SDS011;29527;55.766;37.570;2023-05-14T02:00:00;8.95;;;2.83;;
37791;SDS011;29527;55.766;37.570;2023-05-14T02:02:26;6.93;;;2.67;;
37791;SDS011;29527;55.766;37.570;2023-05-14T02:04:52;6.82;;;2.85;;
37791;SDS011;29527;55.766;37.570;2023-05-14T02:07:17;5.35;;;2.33;;
37791;SDS011;29527;55.766;37.570;2023-05-14T02:09:43;7.22;;;2.65;;
37791;SDS011;29527;55.766;37.570;2023-05-14T02:12:09;4.43;;;2.47;;
37791;SDS011;29527;55.766;37.570;2023-05-14T02:14:36;8.20;;;2.58;;
37791;SDS011;29527;55.766;37.570;2023-05-14T02:17:01;7.90;;;2.55;;
37791;SDS011;29527;55.766;37.570;2023-05-14T02:19:28;4.47;;;2.20;;
37791;SDS011;29527;55.766;37.570;2023-05-14T02:24:39;4.43;;;2.50;;
37791;SDS011;29527;55.766;37.570;2023-05-14T02:27:05;5.13;;;2.75;;
37791;SDS011;29527;55.766;37.570;2023-05-14T02:29:30;5.43;;;2.45;;
37791;SDS011;29527;55.766;37.570;2023-05-14T02:31:56;6.90;;;2.35;;
37791;SDS011;29527;55.766;37.570;2023-05-14T02:34:22;5.10;;;2.35;;
37791;SDS011;29527;55.766;37.570;2023-05-14T02:36:47;5.00;;;2.65;;
37791;SDS011;29527;55.766;37.570;2023-05-14T02:39:13;4.88;;;2.50;;
37791;SDS011;29527;55.766;37.570;2023-05-14T02:41:39;3.92;;;2.13;;
37791;SDS011;29527;55.766;37.570;2023-05-14T02:44:04;6.95;;;2.65;;
37791;SDS011;29527;55.766;37.570;2023-05-14T02:46:30;4.30;;;2.85;;
37791;SDS011;29527;55.766;37.570;2023-05-14T02:48:56;5.95;;;2.50;;
37791;SDS011;29527;55.766;37.570;2023-05-14T02:51:22;5.80;;;2.53;;
37791;SDS011;29527;55.766;37.570;2023-05-14T02:53:48;4.63;;;2.72;;
37791;SDS011;29527;55.766;37.570;2023-05-14T02:56:13;3.20;;;2.63;;
37791;SDS011;29527;55.766;37.570;2023-05-14T02:58:39;6.55;;;2.47;;
37791;SDS011;29527;55.766;37.570;2023-05-14T03:01:05;3.50;;;2.65;;
37791;SDS011;29527;55.766;37.570;2023-05-14T03:03:31;6.95;;;2.67;;
37791;SDS011;29527;55.766;37.570;2023-05-14T03:05:56;4.93;;;2.40;;
37791;SDS011;29527;55.766;37.570;2023-05-14T03:08:22;6.40;;;2.40;;
37791;SDS011;29527;55.766;37.570;2023-05-14T03:10:48;9.77;;;2.63;;
37791;SDS011;29527;55.766;37.570;2023-05-14T03:13:13;4.32;;;2.25;;
37791;SDS011;29527;55.766;37.570;2023-05-14T03:15:42;4.65;;;2.30;;
37791;SDS011;29527;55.766;37.570;2023-05-14T03:18:08;7.80;;;2.58;;
37791;SDS011;29527;55.766;37.570;2023-05-14T03:20:34;6.72;;;2.45;;
37791;SDS011;29527;55.766;37.570;2023-05-14T03:22:59;3.10;;;2.22;;
37791;SDS011;29527;55.766;37.570;2023-05-14T03:25:25;6.60;;;2.20;;
37791;SDS011;29527;55.766;37.570;2023-05-14T03:27:51;4.43;;;2.15;;
37791;SDS011;29527;55.766;37.570;2023-05-14T03:30:16;11.20;;;2.50;;
37791;SDS011;29527;55.766;37.570;2023-05-14T03:32:42;4.20;;;2.40;;
37791;SDS011;29527;55.766;37.570;2023-05-14T03:35:08;6.68;;;2.38;;
37791;SDS011;29527;55.766;37.570;2023-05-14T03:37:34;4.32;;;2.13;;
37791;SDS011;29527;55.766;37.570;2023-05-14T03:39:59;3.85;;;2.35;;
37791;SDS011;29527;55.766;37.570;2023-05-14T03:42:25;4.45;;;2.50;;
37791;SDS011;29527;55.766;37.570;2023-05-14T03:44:51;4.03;;;2.20;;
37791;SDS011;29527;55.766;37.570;2023-05-14T03:47:16;4.82;;;2.20;;
37791;SDS011;29527;55.766;37.570;2023-05-14T03:49:42;4.35;;;2.28;;
37791;SDS011;29527;55.766;37.570;2023-05-14T03:52:07;5.78;;;2.50;;
37791;SDS011;29527;55.766;37.570;2023-05-14T03:54:33;8.30;;;2.17;;
37791;SDS011;29527;55.766;37.570;2023-05-14T03:56:58;3.92;;;2.10;;
37791;SDS011;29527;55.766;37.570;2023-05-14T03:59:24;4.97;;;2.13;;
37791;SDS011;29527;55.766;37.570;2023-05-14T04:01:49;4.63;;;2.00;;
37791;SDS011;29527;55.766;37.570;2023-05-14T04:04:15;5.40;;;2.25;;
37791;SDS011;29527;55.766;37.570;2023-05-14T04:06:40;4.80;;;1.98;;
37791;SDS011;29527;55.766;37.570;2023-05-14T04:09:06;3.42;;;1.83;;
37791;SDS011;29527;55.766;37.570;2023-05-14T04:11:31;4.93;;;2.13;;
37791;SDS011;29527;55.766;37.570;2023-05-14T04:13:57;4.13;;;1.90;;
37791;SDS011;29527;55.766;37.570;2023-05-14T04:16:22;3.97;;;1.70;;
37791;SDS011;29527;55.766;37.570;2023-05-14T04:18:48;4.28;;;1.90;;
37791;SDS011;29527;55.766;37.570;2023-05-14T04:21:13;6.40;;;1.90;;
37791;SDS011;29527;55.766;37.570;2023-05-14T04:23:39;3.97;;;1.80;;
37791;SDS011;29527;55.766;37.570;2023-05-14T04:26:05;6.63;;;1.90;;
37791;SDS011;29527;55.766;37.570;2023-05-14T04:28:30;4.05;;;1.83;;
37791;SDS011;29527;55.766;37.570;2023-05-14T04:30:56;3.17;;;1.55;;
37791;SDS011;29527;55.766;37.570;2023-05-14T04:33:22;7.75;;;1.90;;
37791;SDS011;29527;55.766;37.570;2023-05-14T04:35:47;6.93;;;1.70;;
37791;SDS011;29527;55.766;37.570;2023-05-14T04:38:13;6.50;;;1.92;;
37791;SDS011;29527;55.766;37.570;2023-05-14T04:40:38;3.05;;;1.70;;
37791;SDS011;29527;55.766;37.570;2023-05-14T04:43:06;5.32;;;1.73;;
37791;SDS011;29527;55.766;37.570;2023-05-14T04:45:32;3.17;;;1.80;;
37791;SDS011;29527;55.766;37.570;2023-05-14T04:47:58;5.13;;;1.50;;
37791;SDS011;29527;55.766;37.570;2023-05-14T04:50:24;3.08;;;1.48;;
37791;SDS011;29527;55.766;37.570;2023-05-14T04:52:50;4.03;;;1.30;;
37791;SDS011;29527;55.766;37.570;2023-05-14T04:55:16;5.45;;;1.52;;
37791;SDS011;29527;55.766;37.570;2023-05-14T04:57:42;3.40;;;1.52;;
37791;SDS011;29527;55.766;37.570;2023-05-14T05:00:07;1.77;;;1.40;;
37791;SDS011;29527;55.766;37.570;2023-05-14T05:02:34;2.40;;;1.58;;
37791;SDS011;29527;55.766;37.570;2023-05-14T05:04:59;4.13;;;1.70;;
37791;SDS011;29527;55.766;37.570;2023-05-14T05:07:25;5.90;;;1.90;;
37791;SDS011;29527;55.766;37.570;2023-05-14T05:09:51;4.13;;;1.40;;
37791;SDS011;29527;55.766;37.570;2023-05-14T05:12:16;5.00;;;1.65;;
37791;SDS011;29527;55.766;37.570;2023-05-14T05:14:42;3.08;;;1.20;;
37791;SDS011;29527;55.766;37.570;2023-05-14T05:17:07;2.40;;;1.30;;
37791;SDS011;29527;55.766;37.570;2023-05-14T05:19:33;3.65;;;1.30;;
37791;SDS011;29527;55.766;37.570;2023-05-14T05:21:58;2.42;;;1.52;;
37791;SDS011;29527;55.766;37.570;2023-05-14T05:24:24;4.65;;;1.25;;
37791;SDS011;29527;55.766;37.570;2023-05-14T05:26:49;1.80;;;1.30;;
37791;SDS011;29527;55.766;37.570;2023-05-14T05:29:16;1.95;;;1.20;;
37791;SDS011;29527;55.766;37.570;2023-05-14T05:31:41;1.40;;;1.25;;
37791;SDS011;29527;55.766;37.570;2023-05-14T05:34:07;3.53;;;1.67;;
37791;SDS011;29527;55.766;37.570;2023-05-14T05:36:32;4.43;;;1.40;;
37791;SDS011;29527;55.766;37.570;2023-05-14T05:38:58;3.97;;;1.48;;
37791;SDS011;29527;55.766;37.570;2023-05-14T05:41:24;2.00;;;1.48;;
37791;SDS011;29527;55.766;37.570;2023-05-14T05:43:51;3.47;;;1.40;;
37791;SDS011;29527;55.766;37.570;2023-05-14T05:46:16;4.32;;;1.60;;
37791;SDS011;29527;55.766;37.570;2023-05-14T05:48:42;3.45;;;1.50;;
37791;SDS011;29527;55.766;37.570;2023-05-14T05:51:08;2.38;;;1.45;;
37791;SDS011;29527;55.766;37.570;2023-05-14T05:53:33;3.10;;;1.33;;
37791;SDS011;29527;55.766;37.570;2023-05-14T05:55:59;4.53;;;1.50;;
37791;SDS011;29527;55.766;37.570;2023-05-14T05:58:24;1.95;;;1.70;;
37791;SDS011;29527;55.766;37.570;2023-05-14T06:00:50;5.93;;;1.58;;
37791;SDS011;29527;55.766;37.570;2023-05-14T06:03:16;2.65;;;1.50;;
37791;SDS011;29527;55.766;37.570;2023-05-14T06:05:41;2.35;;;1.25;;
37791;SDS011;29527;55.766;37.570;2023-05-14T06:08:07;3.92;;;1.70;;
37791;SDS011;29527;55.766;37.570;2023-05-14T06:10:32;4.35;;;1.45;;
37791;SDS011;29527;55.766;37.570;2023-05-14T06:12:58;2.10;;;1.45;;
37791;SDS011;29527;55.766;37.570;2023-05-14T06:15:24;2.40;;;1.30;;
37791;SDS011;29527;55.766;37.570;2023-05-14T06:17:49;2.70;;;1.50;;
37791;SDS011;29527;55.766;37.570;2023-05-14T06:20:15;2.80;;;1.58;;
37791;SDS011;29527;55.766;37.570;2023-05-14T06:22:41;2.75;;;1.58;;
37791;SDS011;29527;55.766;37.570;2023-05-14T06:25:06;4.75;;;1.50;;
37791;SDS011;29527;55.766;37.570;2023-05-14T06:27:32;1.88;;;1.20;;
37791;SDS011;29527;55.766;37.570;2023-05-14T06:29:58;3.83;;;1.40;;
37791;SDS011;29527;55.766;37.570;2023-05-14T06:32:23;2.70;;;1.25;;
37791;SDS011;29527;55.766;37.570;2023-05-14T06:34:49;5.43;;;1.30;;
37791;SDS011;29527;55.766;37.570;2023-05-14T06:37:14;5.00;;;1.25;;
37791;SDS011;29527;55.766;37.570;2023-05-14T06:39:40;4.20;;;1.38;;
37791;SDS011;29527;55.766;37.570;2023-05-14T06:42:12;2.17;;;1.10;;
37791;SDS011;29527;55.766;37.570;2023-05-14T06:44:38;2.70;;;1.25;;
37791;SDS011;29527;55.766;37.570;2023-05-14T06:47:03;4.22;;;1.20;;
37791;SDS011;29527;55.766;37.570;2023-05-14T06:49:32;3.40;;;1.05;;
37791;SDS011;29527;55.766;37.570;2023-05-14T06:51:58;2.20;;;1.20;;
37791;SDS011;29527;55.766;37.570;2023-05-14T06:54:24;3.15;;;1.10;;
37791;SDS011;29527;55.766;37.570;2023-05-14T06:56:50;3.60;;;1.27;;
37791;SDS011;29527;55.766;37.570;2023-05-14T06:59:15;5.00;;;1.05;;
37791;SDS011;29527;55.766;37.570;2023-05-14T07:01:41;5.75;;;1.20;;
37791;SDS011;29527;55.766;37.570;2023-05-14T07:04:06;2.25;;;1.10;;
37791;SDS011;29527;55.766;37.570;2023-05-14T07:06:32;5.00;;;1.30;;
37791;SDS011;29527;55.766;37.570;2023-05-14T07:08:58;1.70;;;1.08;;
37791;SDS011;29527;55.766;37.570;2023-05-14T07:11:25;5.07;;;1.20;;
37791;SDS011;29527;55.766;37.570;2023-05-14T07:13:50;4.30;;;1.00;;
37791;SDS011;29527;55.766;37.570;2023-05-14T07:16:16;3.42;;;1.10;;
37791;SDS011;29527;55.766;37.570;2023-05-14T07:18:43;2.00;;;0.82;;
37791;SDS011;29527;55.766;37.570;2023-05-14T07:21:09;1.20;;;0.90;;
37791;SDS011;29527;55.766;37.570;2023-05-14T07:23:35;2.95;;;1.23;;
37791;SDS011;29527;55.766;37.570;2023-05-14T07:26:04;4.85;;;1.23;;
37791;SDS011;29527;55.766;37.570;2023-05-14T07:28:30;6.38;;;1.50;;
37791;SDS011;29527;55.766;37.570;2023-05-14T07:30:56;3.83;;;1.20;;
37791;SDS011;29527;55.766;37.570;2023-05-14T07:33:23;9.23;;;1.60;;
37791;SDS011;29527;55.766;37.570;2023-05-14T07:35:48;2.75;;;1.10;;
37791;SDS011;29527;55.766;37.570;2023-05-14T07:38:14;2.70;;;1.20;;
37791;SDS011;29527;55.766;37.570;2023-05-14T07:40:41;4.82;;;1.45;;
37791;SDS011;29527;55.766;37.570;2023-05-14T07:43:07;3.55;;;1.45;;
37791;SDS011;29527;55.766;37.570;2023-05-14T07:45:35;5.07;;;1.10;;
37791;SDS011;29527;55.766;37.570;2023-05-14T07:48:01;3.35;;;1.42;;
37791;SDS011;29527;55.766;37.570;2023-05-14T07:50:27;3.55;;;1.10;;
37791;SDS011;29527;55.766;37.570;2023-05-14T07:52:52;5.28;;;1.20;;
37791;SDS011;29527;55.766;37.570;2023-05-14T07:55:18;4.45;;;1.55;;
37791;SDS011;29527;55.766;37.570;2023-05-14T07:57:44;3.75;;;0.77;;
37791;SDS011;29527;55.766;37.570;2023-05-14T08:00:10;2.33;;;1.25;;
37791;SDS011;29527;55.766;37.570;2023-05-14T08:02:36;5.13;;;1.00;;
37791;SDS011;29527;55.766;37.570;2023-05-14T08:05:02;2.95;;;1.13;;
37791;SDS011;29527;55.766;37.570;2023-05-14T08:07:30;4.65;;;1.23;;
37791;SDS011;29527;55.766;37.570;2023-05-14T08:09:55;3.78;;;1.08;;
37791;SDS011;29527;55.766;37.570;2023-05-14T08:12:21;3.78;;;1.15;;
37791;SDS011;29527;55.766;37.570;2023-05-14T08:14:47;5.43;;;1.08;;
37791;SDS011;29527;55.766;37.570;2023-05-14T08:17:12;4.40;;;1.02;;
37791;SDS011;29527;55.766;37.570;2023-05-14T08:19:38;4.72;;;1.30;;
37791;SDS011;29527;55.766;37.570;2023-05-14T08:22:04;6.30;;;1.63;;
37791;SDS011;29527;55.766;37.570;2023-05-14T08:24:29;4.95;;;1.20;;
37791;SDS011;29527;55.766;37.570;2023-05-14T08:26:55;1.98;;;1.40;;
37791;SDS011;29527;55.766;37.570;2023-05-14T08:29:20;3.03;;;1.20;;
37791;SDS011;29527;55.766;37.570;2023-05-14T08:31:47;3.92;;;1.05;;
37791;SDS011;29527;55.766;37.570;2023-05-14T08:34:14;6.20;;;1.50;;
37791;SDS011;29527;55.766;37.570;2023-05-14T08:36:39;3.50;;;1.13;;
37791;SDS011;29527;55.766;37.570;2023-05-14T08:39:05;4.43;;;1.35;;
37791;SDS011;29527;55.766;37.570;2023-05-14T08:41:34;3.83;;;1.40;;
37791;SDS011;29527;55.766;37.570;2023-05-14T08:49:50;6.40;;;1.15;;
37791;SDS011;29527;55.766;37.570;2023-05-14T08:52:05;2.38;;;1.10;;
37791;SDS011;29527;55.766;37.570;2023-05-14T08:54:31;2.25;;;1.00;;
37791;SDS011;29527;55.766;37.570;2023-05-14T08:56:56;1.58;;;1.20;;
37791;SDS011;29527;55.766;37.570;2023-05-14T08:59:23;7.57;;;1.50;;
37791;SDS011;29527;55.766;37.570;2023-05-14T09:01:50;6.65;;;1.55;;
37791;SDS011;29527;55.766;37.570;2023-05-14T09:04:21;5.28;;;1.40;;
37791;SDS011;29527;55.766;37.570;2023-05-14T09:06:49;5.50;;;1.20;;
37791;SDS011;29527;55.766;37.570;2023-05-14T09:09:18;8.45;;;1.50;;
37791;SDS011;29527;55.766;37.570;2023-05-14T09:11:48;8.32;;;1.35;;
37791;SDS011;29527;55.766;37.570;2023-05-14T09:14:15;3.80;;;1.30;;
37791;SDS011;29527;55.766;37.570;2023-05-14T09:16:45;6.97;;;1.17;;
37791;SDS011;29527;55.766;37.570;2023-05-14T09:19:12;4.60;;;1.15;;
37791;SDS011;29527;55.766;37.570;2023-05-14T09:21:40;2.47;;;1.08;;
37791;SDS011;29527;55.766;37.570;2023-05-14T09:24:06;5.18;;;1.33;;
37791;SDS011;29527;55.766;37.570;2023-05-14T09:26:33;4.57;;;1.30;;
37791;SDS011;29527;55.766;37.570;2023-05-14T09:28:59;1.50;;;1.00;;
37791;SDS011;29527;55.766;37.570;2023-05-14T09:31:29;7.35;;;4.38;;
37791;SDS011;29527;55.766;37.570;2023-05-14T09:33:56;6.00;;;1.30;;
37791;SDS011;29527;55.766;37.570;2023-05-14T09:36:22;1.52;;;1.20;;
37791;SDS011;29527;55.766;37.570;2023-05-14T09:38:57;4.60;;;1.98;;
37791;SDS011;29527;55.766;37.570;2023-05-14T09:41:24;4.85;;;1.10;;
37791;SDS011;29527;55.766;37.570;2023-05-14T09:43:50;3.28;;;1.23;;
37791;SDS011;29527;55.766;37.570;2023-05-14T09:46:16;2.22;;;1.15;;
37791;SDS011;29527;55.766;37.570;2023-05-14T09:48:42;1.58;;;1.10;;
37791;SDS011;29527;55.766;37.570;2023-05-14T09:51:11;3.08;;;0.98;;
37791;SDS011;29527;55.766;37.570;2023-05-14T09:53:37;2.30;;;1.23;;
37791;SDS011;29527;55.766;37.570;2023-05-14T09:56:05;3.38;;;1.20;;
37791;SDS011;29527;55.766;37.570;2023-05-14T09:58:31;2.10;;;1.17;;
37791;SDS011;29527;55.766;37.570;2023-05-14T10:00:57;2.13;;;1.17;;
37791;SDS011;29527;55.766;37.570;2023-05-14T10:03:24;3.05;;;1.23;;
37791;SDS011;29527;55.766;37.570;2023-05-14T10:05:52;2.08;;;1.17;;
37791;SDS011;29527;55.766;37.570;2023-05-14T10:08:26;4.25;;;1.30;;
37791;SDS011;29527;55.766;37.570;2023-05-14T10:10:57;6.53;;;1.48;;
37791;SDS011;29527;55.766;37.570;2023-05-14T10:13:29;3.85;;;1.35;;
37791;SDS011;29527;55.766;37.570;2023-05-14T10:16:07;6.72;;;1.42;;
37791;SDS011;29527;55.766;37.570;2023-05-14T10:18:39;3.88;;;1.42;;
37791;SDS011;29527;55.766;37.570;2023-05-14T10:21:07;5.45;;;1.40;;
37791;SDS011;29527;55.766;37.570;2023-05-14T10:23:34;4.22;;;1.40;;
37791;SDS011;29527;55.766;37.570;2023-05-14T10:26:02;2.95;;;1.60;;
37791;SDS011;29527;55.766;37.570;2023-05-14T10:28:28;8.15;;;1.63;;
37791;SDS011;29527;55.766;37.570;2023-05-14T10:30:56;5.60;;;1.55;;
37791;SDS011;29527;55.766;37.570;2023-05-14T10:33:21;3.28;;;1.33;;
37791;SDS011;29527;55.766;37.570;2023-05-14T10:35:51;4.57;;;1.20;;
37791;SDS011;29527;55.766;37.570;2023-05-14T10:38:24;9.38;;;1.60;;
37791;SDS011;29527;55.766;37.570;2023-05-14T10:41:01;4.70;;;1.33;;
37791;SDS011;29527;55.766;37.570;2023-05-14T10:43:28;8.18;;;1.27;;
37791;SDS011;29527;55.766;37.570;2023-05-14T10:45:56;3.22;;;0.80;;
37791;SDS011;29527;55.766;37.570;2023-05-14T10:48:23;2.88;;;1.50;;
37791;SDS011;29527;55.766;37.570;2023-05-14T10:50:49;4.75;;;1.25;;
37791;SDS011;29527;55.766;37.570;2023-05-14T10:53:16;5.28;;;1.30;;
37791;SDS011;29527;55.766;37.570;2023-05-14T10:55:42;5.47;;;1.50;;
37791;SDS011;29527;55.766;37.570;2023-05-14T10:58:12;3.00;;;1.75;;
37791;SDS011;29527;55.766;37.570;2023-05-14T11:00:38;5.80;;;1.60;;
37791;SDS011;29527;55.766;37.570;2023-05-14T11:03:05;4.22;;;1.50;;
37791;SDS011;29527;55.766;37.570;2023-05-14T11:05:32;4.53;;;1.30;;
37791;SDS011;29527;55.766;37.570;2023-05-14T11:08:02;4.43;;;1.30;;
37791;SDS011;29527;55.766;37.570;2023-05-14T11:10:30;4.47;;;1.70;;
37791;SDS011;29527;55.766;37.570;2023-05-14T11:12:56;4.57;;;1.48;;
37791;SDS011;29527;55.766;37.570;2023-05-14T11:15:24;6.05;;;1.60;;
37791;SDS011;29527;55.766;37.570;2023-05-14T11:17:51;4.75;;;1.58;;
37791;SDS011;29527;55.766;37.570;2023-05-14T11:20:17;4.85;;;1.58;;
37791;SDS011;29527;55.766;37.570;2023-05-14T11:22:44;8.52;;;1.70;;
37791;SDS011;29527;55.766;37.570;2023-05-14T11:25:11;4.50;;;1.60;;
37791;SDS011;29527;55.766;37.570;2023-05-14T11:27:39;4.20;;;1.50;;
37791;SDS011;29527;55.766;37.570;2023-05-14T11:30:16;7.38;;;1.60;;
37791;SDS011;29527;55.766;37.570;2023-05-14T11:32:44;3.50;;;1.25;;
37791;SDS011;29527;55.766;37.570;2023-05-14T11:35:11;5.47;;;1.20;;
37791;SDS011;29527;55.766;37.570;2023-05-14T11:37:37;3.28;;;1.35;;
37791;SDS011;29527;55.766;37.570;2023-05-14T11:40:05;4.72;;;1.20;;
37791;SDS011;29527;55.766;37.570;2023-05-14T11:42:34;4.05;;;1.30;;
37791;SDS011;29527;55.766;37.570;2023-05-14T11:45:00;2.55;;;1.30;;
37791;SDS011;29527;55.766;37.570;2023-05-14T11:47:29;4.55;;;1.60;;
37791;SDS011;29527;55.766;37.570;2023-05-14T11:49:55;5.78;;;1.15;;
37791;SDS011;29527;55.766;37.570;2023-05-14T11:52:21;3.30;;;1.33;;
37791;SDS011;29527;55.766;37.570;2023-05-14T11:54:47;7.32;;;1.10;;
37791;SDS011;29527;55.766;37.570;2023-05-14T11:57:17;4.07;;;1.15;;
37791;SDS011;29527;55.766;37.570;2023-05-14T11:59:44;3.90;;;1.05;;
37791;SDS011;29527;55.766;37.570;2023-05-14T12:02:14;2.40;;;1.00;;
37791;SDS011;29527;55.766;37.570;2023-05-14T12:04:41;2.25;;;1.23;;
37791;SDS011;29527;55.766;37.570;2023-05-14T12:07:08;4.45;;;1.60;;
37791;SDS011;29527;55.766;37.570;2023-05-14T12:09:35;8.65;;;1.70;;
37791;SDS011;29527;55.766;37.570;2023-05-14T12:12:08;3.15;;;1.40;;
37791;SDS011;29527;55.766;37.570;2023-05-14T12:14:39;3.28;;;1.25;;
37791;SDS011;29527;55.766;37.570;2023-05-14T12:17:22;3.97;;;1.33;;
37791;SDS011;29527;55.766;37.570;2023-05-14T12:19:49;4.88;;;1.73;;
37791;SDS011;29527;55.766;37.570;2023-05-14T12:22:17;5.07;;;1.40;;
37791;SDS011;29527;55.766;37.570;2023-05-14T12:24:51;3.58;;;1.23;;
37791;SDS011;29527;55.766;37.570;2023-05-14T12:27:20;3.13;;;1.15;;
37791;SDS011;29527;55.766;37.570;2023-05-14T12:32:30;8.95;;;1.90;;
37791;SDS011;29527;55.766;37.570;2023-05-14T12:34:56;3.83;;;2.05;;
37791;SDS011;29527;55.766;37.570;2023-05-14T12:37:21;3.35;;;1.70;;
37791;SDS011;29527;55.766;37.570;2023-05-14T12:39:47;4.22;;;1.63;;
37791;SDS011;29527;55.766;37.570;2023-05-14T12:42:16;4.72;;;1.70;;
37791;SDS011;29527;55.766;37.570;2023-05-14T12:44:41;7.55;;;1.70;;
37791;SDS011;29527;55.766;37.570;2023-05-14T12:47:07;5.00;;;1.42;;
37791;SDS011;29527;55.766;37.570;2023-05-14T12:49:33;2.60;;;1.50;;
37791;SDS011;29527;55.766;37.570;2023-05-14T12:51:58;4.65;;;1.40;;
37791;SDS011;29527;55.766;37.570;2023-05-14T12:54:24;5.32;;;1.60;;
37791;SDS011;29527;55.766;37.570;2023-05-14T12:56:49;2.22;;;1.50;;
37791;SDS011;29527;55.766;37.570;2023-05-14T12:59:15;4.68;;;1.30;;
37791;SDS011;29527;55.766;37.570;2023-05-14T13:01:40;5.57;;;1.52;;
37791;SDS011;29527;55.766;37.570;2023-05-14T13:04:06;2.22;;;1.30;;
37791;SDS011;29527;55.766;37.570;2023-05-14T13:06:36;3.90;;;1.30;;
37791;SDS011;29527;55.766;37.570;2023-05-14T13:09:02;3.15;;;1.50;;
37791;SDS011;29527;55.766;37.570;2023-05-14T13:11:28;6.75;;;1.40;;
37791;SDS011;29527;55.766;37.570;2023-05-14T13:13:56;5.25;;;1.63;;
37791;SDS011;29527;55.766;37.570;2023-05-14T13:16:25;7.88;;;1.33;;
37791;SDS011;29527;55.766;37.570;2023-05-14T13:18:51;3.40;;;1.55;;
37791;SDS011;29527;55.766;37.570;2023-05-14T13:21:16;4.18;;;1.95;;
37791;SDS011;29527;55.766;37.570;2023-05-14T13:23:42;2.90;;;1.23;;
37791;SDS011;29527;55.766;37.570;2023-05-14T13:26:07;5.57;;;1.58;;
37791;SDS011;29527;55.766;37.570;2023-05-14T13:28:33;5.75;;;1.70;;
37791;SDS011;29527;55.766;37.570;2023-05-14T13:31:12;5.28;;;1.45;;
37791;SDS011;29527;55.766;37.570;2023-05-14T13:33:40;3.30;;;1.45;;
37791;SDS011;29527;55.766;37.570;2023-05-14T13:36:07;3.80;;;1.55;;
37791;SDS011;29527;55.766;37.570;2023-05-14T13:38:33;8.00;;;2.10;;
37791;SDS011;29527;55.766;37.570;2023-05-14T13:40:59;3.85;;;1.77;;
37791;SDS011;29527;55.766;37.570;2023-05-14T13:43:28;3.38;;;1.70;;
37791;SDS011;29527;55.766;37.570;2023-05-14T13:45:55;5.47;;;1.73;;
37791;SDS011;29527;55.766;37.570;2023-05-14T13:48:21;4.50;;;1.80;;
37791;SDS011;29527;55.766;37.570;2023-05-14T13:50:47;2.22;;;1.77;;
37791;SDS011;29527;55.766;37.570;2023-05-14T13:53:13;5.13;;;1.70;;
37791;SDS011;29527;55.766;37.570;2023-05-14T13:55:38;2.65;;;1.48;;
37791;SDS011;29527;55.766;37.570;2023-05-14T13:58:04;3.00;;;1.88;;
37791;SDS011;29527;55.766;37.570;2023-05-14T14:00:29;4.90;;;1.25;;
37791;SDS011;29527;55.766;37.570;2023-05-14T14:02:55;6.05;;;1.83;;
37791;SDS011;29527;55.766;37.570;2023-05-14T14:05:20;1.85;;;1.50;;
37791;SDS011;29527;55.766;37.570;2023-05-14T14:07:47;2.55;;;1.30;;
37791;SDS011;29527;55.766;37.570;2023-05-14T14:10:13;3.47;;;1.55;;
37791;SDS011;29527;55.766;37.570;2023-05-14T14:12:38;3.75;;;1.70;;
37791;SDS011;29527;55.766;37.570;2023-05-14T14:15:04;4.57;;;1.35;;
37791;SDS011;29527;55.766;37.570;2023-05-14T14:17:33;6.15;;;1.50;;
37791;SDS011;29527;55.766;37.570;2023-05-14T14:19:58;5.07;;;1.75;;
37791;SDS011;29527;55.766;37.570;2023-05-14T14:22:24;6.75;;;1.63;;
37791;SDS011;29527;55.766;37.570;2023-05-14T14:24:49;4.95;;;1.60;;
37791;SDS011;29527;55.766;37.570;2023-05-14T14:27:15;6.88;;;1.50;;
37791;SDS011;29527;55.766;37.570;2023-05-14T14:29:40;5.10;;;1.40;;
37791;SDS011;29527;55.766;37.570;2023-05-14T14:32:06;6.45;;;1.30;;
37791;SDS011;29527;55.766;37.570;2023-05-14T14:34:32;2.75;;;1.27;;
37791;SDS011;29527;55.766;37.570;2023-05-14T14:36:57;5.47;;;1.20;;
37791;SDS011;29527;55.766;37.570;2023-05-14T14:39:23;2.90;;;1.45;;
37791;SDS011;29527;55.766;37.570;2023-05-14T14:41:49;5.18;;;1.42;;
37791;SDS011;29527;55.766;37.570;2023-05-14T14:44:15;2.83;;;1.10;;